Time;durP1;ratioP1;P1;durP2;ratioP2;P2;SDS_P1;SDS_P2;PMS_P1;PMS_P2;Temp;Humidity;BMP_temperature;BMP_pressure;BME280_temperature;BME280_humidity;BME280_pressure;Samples;Min_cycle;Max_cycle;Signal;HPM_P1;HPM_P2
2023/12/14 06:28:32;;;;;;;;;;;;;;;9.96;73.79;96595.50;4247628;27;10346;-71
2023/12/14 06:30:35;;;;;;;;;;;;;;;10.24;73.04;96598.16;4248316;27;5646;-72
2023/12/14 06:32:38;;;;;;;;;;;;;;;10.46;72.48;96607.59;4248545;27;5654;-71
2023/12/14 06:34:42;;;;;;;;;;;;;;;10.64;71.82;96605.22;4247454;27;5671;-66
2023/12/14 06:36:46;;;;;;;;;;;;;;;10.79;71.68;96611.19;4240366;27;5642;-65
2023/12/14 06:38:48;;;;;;;;;;;;;;;10.87;71.10;96619.94;4245973;27;5868;-65
2023/12/14 06:40:51;;;;;;;;;;;;;;;10.98;70.98;96622.00;4245251;27;5878;-66
2023/12/14 06:42:54;;;;;;;;;;;;;;;11.04;70.35;96631.81;4247737;27;5725;-66
2023/12/14 06:44:58;;;;;;;;;;;;;;;11.10;70.15;96631.03;4248253;27;5709;-67
2023/12/14 06:47:00;;;;;;;;;;;;;;;11.18;70.20;96632.66;4248180;27;5765;-67
2023/12/14 06:49:03;;;;;;;;;;;;;;;11.25;69.94;96634.28;4247995;27;5747;-66
2023/12/14 06:51:06;;;;;;;;;;;;;;;11.31;69.84;96643.25;4248401;27;5718;-67
2023/12/14 06:53:08;;;;;;;;;;;;;;;11.32;69.35;96650.97;4248521;27;5646;-67
2023/12/14 06:55:14;;;;;;;;;;;;;;;11.34;69.52;96650.81;4246904;27;5650;-67
2023/12/14 06:57:17;;;;;;;;;;;;;;;11.35;69.26;96655.91;4248049;27;5777;-66
2023/12/14 06:59:20;;;;;;;;;;;;;;;11.41;69.05;96659.56;4248302;27;5106;-66
2023/12/14 07:01:24;;;;;;;;;;;;;;;11.43;68.81;96664.66;4248356;27;7682;-66
2023/12/14 07:03:27;;;;;;;;;;;;;;;11.42;68.74;96661.19;4247942;27;5769;-66
2023/12/14 07:05:32;;;;;;;;;;;;;;;11.45;68.59;96660.81;4239572;27;5673;-66
2023/12/14 07:07:35;;;;;;;;;;;;;;;11.47;68.28;96668.53;4248050;27;5689;-66
2023/12/14 07:09:38;;;;;;;;;;;;;;;11.46;68.19;96667.72;4248072;27;5658;-66
2023/12/14 07:11:41;;;;;;;;;;;;;;;11.48;68.00;96675.47;4248218;27;5673;-65
2023/12/14 07:13:43;;;;;;;;;;;;;;;11.50;68.00;96674.22;4247886;27;5662;-66
2023/12/14 07:15:46;;;;;;;;;;;;;;;11.52;67.87;96677.50;4247766;27;5638;-66
2023/12/14 07:17:51;;;;;;;;;;;;;;;11.53;67.79;96673.81;4247342;27;5720;-66
2023/12/14 07:19:54;;;;;;;;;;;;;;;11.58;67.95;96684.63;4247992;27;5674;-67
2023/12/14 07:22:01;;;;;;;;;;;;;;;11.60;67.67;96693.19;4247778;27;5744;-67
2023/12/14 07:24:04;;;;;;;;;;;;;;;11.62;67.75;96693.81;4247922;27;5769;-66
2023/12/14 07:26:07;;;;;;;;;;;;;;;11.64;67.33;96702.34;4247926;27;5713;-66
2023/12/14 07:28:11;;;;;;;;;;;;;;;11.64;67.48;96712.13;4242637;27;5824;-66
2023/12/14 07:30:14;;;;;;;;;;;;;;;11.65;67.13;96703.16;4236238;28;5654;-66
2023/12/14 07:32:17;;;;;;;;;;;;;;;11.64;67.32;96707.66;4236741;28;5658;-66
2023/12/14 07:34:22;;;;;;;;;;;;;;;11.67;67.23;96717.03;4236232;28;5673;-66
2023/12/14 07:36:25;;;;;;;;;;;;;;;11.67;66.93;96711.75;4236326;28;5642;-66
2023/12/14 07:38:28;;;;;;;;;;;;;;;11.70;66.78;96729.06;4236304;28;5754;-66
2023/12/14 07:40:31;;;;;;;;;;;;;;;11.67;66.90;96725.00;4236353;27;5662;-67
2023/12/14 07:42:34;;;;;;;;;;;;;;;11.64;66.54;96734.13;4236384;28;5642;-66
2023/12/14 07:44:40;;;;;;;;;;;;;;;11.66;66.75;96733.91;4236524;27;5654;-67
2023/12/14 07:46:43;;;;;;;;;;;;;;;11.69;66.36;96732.72;4233919;28;5654;-66
2023/12/14 07:48:45;;;;;;;;;;;;;;;11.68;66.46;96741.69;4235719;28;5714;-66
2023/12/14 07:50:49;;;;;;;;;;;;;;;11.66;66.13;96748.00;4236146;28;5784;-67
2023/12/14 07:52:52;;;;;;;;;;;;;;;11.64;66.27;96739.41;4236221;28;5797;-67
2023/12/14 07:54:55;;;;;;;;;;;;;;;11.63;66.09;96745.75;4235965;28;5098;-67
2023/12/14 07:56:58;;;;;;;;;;;;;;;11.62;66.17;96749.41;4236087;28;8580;-67
2023/12/14 07:59:01;;;;;;;;;;;;;;;11.63;65.96;96753.69;4236060;28;5654;-67
2023/12/14 08:01:03;;;;;;;;;;;;;;;11.65;65.93;96756.13;4236081;28;5735;-67
2023/12/14 08:03:06;;;;;;;;;;;;;;;11.66;65.77;96763.91;4235884;28;5646;-67
2023/12/14 08:05:09;;;;;;;;;;;;;;;11.69;65.82;96764.50;4236053;28;5650;-67
2023/12/14 08:07:13;;;;;;;;;;;;;;;11.69;65.83;96773.25;4235974;28;5641;-65
2023/12/14 08:09:16;;;;;;;;;;;;;;;11.69;65.58;96775.91;4235957;28;5650;-68
2023/12/14 08:11:19;;;;;;;;;;;;;;;11.71;65.38;96786.31;4235416;28;5654;-67
2023/12/14 08:13:22;;;;;;;;;;;;;;;11.72;65.60;96788.75;4232278;27;5604;-67
2023/12/14 08:15:25;;;;;;;;;;;;;;;11.73;65.41;96794.84;4228073;28;5673;-66
2023/12/14 08:17:28;;;;;;;;;;;;;;;11.73;65.37;96800.97;4246982;27;5862;-67
2023/12/14 08:19:32;;;;;;;;;;;;;;;11.73;65.05;96800.97;4218188;28;5750;-66
2023/12/14 08:21:34;;;;;;;;;;;;;;;11.73;65.16;96802.81;4227743;28;5642;-66
2023/12/14 08:23:39;;;;;;;;;;;;;;;11.74;65.03;96810.53;4235813;28;5752;-66
2023/12/14 08:25:42;;;;;;;;;;;;;;;11.77;65.33;96812.78;4235856;28;5654;-67
2023/12/14 08:27:45;;;;;;;;;;;;;;;11.78;65.01;96813.59;4235493;28;5642;-67
2023/12/14 08:29:47;;;;;;;;;;;;;;;11.79;64.85;96820.56;4235655;28;5879;-66
2023/12/14 08:31:50;;;;;;;;;;;;;;;11.78;65.02;96825.03;4235717;28;5955;-67
2023/12/14 08:33:53;;;;;;;;;;;;;;;11.79;64.95;96825.84;4235556;27;5725;-67
2023/12/14 08:35:55;;;;;;;;;;;;;;;11.80;64.76;96822.22;4235736;28;5650;-67
2023/12/14 08:37:58;;;;;;;;;;;;;;;11.82;64.69;96825.47;4235432;28;5778;-66
2023/12/14 08:40:03;;;;;;;;;;;;;;;11.83;64.68;96840.34;4233121;28;5646;-67
2023/12/14 08:42:06;;;;;;;;;;;;;;;11.82;64.56;96847.47;4231936;27;5742;-67
2023/12/14 08:44:09;;;;;;;;;;;;;;;11.87;64.69;96849.53;4233619;28;5720;-66
2023/12/14 08:46:12;;;;;;;;;;;;;;;11.89;64.50;96843.03;4230760;28;5749;-67
2023/12/14 08:48:15;;;;;;;;;;;;;;;11.90;64.61;96849.16;4229773;28;5881;-67
2023/12/14 08:50:19;;;;;;;;;;;;;;;11.88;64.25;96853.81;4234827;28;7046;-67
2023/12/14 08:52:22;;;;;;;;;;;;;;;11.88;64.56;96859.91;4235018;28;5630;-66
2023/12/14 08:54:25;;;;;;;;;;;;;;;11.89;64.38;96858.94;4232985;28;5665;-67
2023/12/14 08:56:29;;;;;;;;;;;;;;;11.92;64.22;96863.81;4234992;27;5714;-69
2023/12/14 08:58:32;;;;;;;;;;;;;;;11.95;64.08;96875.84;4234834;28;5773;-68
2023/12/14 09:00:35;;;;;;;;;;;;;;;11.92;63.93;96874.41;4234891;28;5678;-65
2023/12/14 09:02:38;;;;;;;;;;;;;;;11.91;63.95;96874.63;4234247;28;5813;-68
2023/12/14 09:04:41;;;;;;;;;;;;;;;11.95;63.85;96875.84;4233995;28;5873;-67
2023/12/14 09:06:45;;;;;;;;;;;;;;;11.97;63.81;96887.06;4234867;28;5665;-66
2023/12/14 09:08:47;;;;;;;;;;;;;;;11.96;63.70;96882.78;4234613;27;5780;-69
2023/12/14 09:10:50;;;;;;;;;;;;;;;11.98;63.87;96888.69;4234561;27;5654;-67
2023/12/14 09:12:55;;;;;;;;;;;;;;;11.99;63.67;96882.34;4234513;28;5713;-67
2023/12/14 09:14:57;;;;;;;;;;;;;;;12.01;63.88;96898.09;4234780;28;5720;-67
2023/12/14 09:17:00;;;;;;;;;;;;;;;12.02;63.66;96892.59;4234374;28;5689;-68
2023/12/14 09:19:03;;;;;;;;;;;;;;;12.03;63.43;96894.22;4234083;28;5638;-66
2023/12/14 09:21:07;;;;;;;;;;;;;;;12.05;63.59;96894.81;4234331;28;6325;-66
2023/12/14 09:23:10;;;;;;;;;;;;;;;12.07;63.41;96894.63;4234710;28;5679;-67
2023/12/14 09:25:13;;;;;;;;;;;;;;;12.09;63.50;96903.19;4234541;28;5646;-66
2023/12/14 09:27:15;;;;;;;;;;;;;;;12.10;63.25;96902.16;4234051;28;5127;-66
2023/12/14 09:29:20;;;;;;;;;;;;;;;12.11;63.15;96915.22;4232950;28;5776;-65
2023/12/14 09:31:23;;;;;;;;;;;;;;;12.10;63.16;96918.88;4234378;28;5685;-67
2023/12/14 09:33:26;;;;;;;;;;;;;;;12.05;62.88;96916.03;4234299;27;5635;-67
2023/12/14 09:35:30;;;;;;;;;;;;;;;12.07;63.17;96919.28;4226444;28;5662;-67
2023/12/14 09:37:32;;;;;;;;;;;;;;;12.10;63.06;96934.78;4234644;28;5642;-66
2023/12/14 09:39:37;;;;;;;;;;;;;;;12.11;62.89;96928.47;4234265;28;5665;-66
2023/12/14 09:41:40;;;;;;;;;;;;;;;12.12;62.84;96940.72;4234468;28;6343;-67
2023/12/14 09:43:43;;;;;;;;;;;;;;;12.11;62.55;96944.34;4234169;28;5733;-66
2023/12/14 09:45:48;;;;;;;;;;;;;;;12.12;62.49;96951.31;4233596;28;5757;-68
2023/12/14 09:47:53;;;;;;;;;;;;;;;12.13;62.51;96958.25;4233995;28;5832;-66
2023/12/14 09:49:55;;;;;;;;;;;;;;;12.13;62.06;96957.44;4234386;28;5654;-66
2023/12/14 09:51:58;;;;;;;;;;;;;;;12.11;62.20;96962.91;4232526;28;5605;-69
2023/12/14 09:54:01;;;;;;;;;;;;;;;12.11;62.14;96957.63;4233951;28;5654;-67
2023/12/14 09:56:05;;;;;;;;;;;;;;;12.12;62.14;96963.75;4233605;28;5776;-67
2023/12/14 09:58:09;;;;;;;;;;;;;;;12.12;61.82;96964.56;4234123;27;5666;-67
2023/12/14 10:00:15;;;;;;;;;;;;;;;12.10;61.82;96961.28;4234241;28;5775;-68
2023/12/14 10:02:18;;;;;;;;;;;;;;;12.10;61.80;96973.72;4232854;28;5190;-64
2023/12/14 10:04:23;;;;;;;;;;;;;;;12.11;61.65;96973.50;4233872;28;5646;-66
2023/12/14 10:06:26;;;;;;;;;;;;;;;12.16;61.46;96976.41;4234109;27;5790;-65
2023/12/14 10:08:29;;;;;;;;;;;;;;;12.16;61.46;96973.75;4233971;28;5753;-67
2023/12/14 10:10:31;;;;;;;;;;;;;;;12.18;61.56;96974.38;4225845;28;5741;-66
2023/12/14 10:12:51;;;;;;;;;;;;;;;12.18;61.48;96977.00;4234187;28;5717;-65
2023/12/14 10:15:02;;;;;;;;;;;;;;;12.20;61.16;96982.13;4234027;28;5782;-65
2023/12/14 10:17:31;;;;;;;;;;;;;;;12.19;61.13;96983.13;4233819;28;5733;-66
2023/12/14 10:19:34;;;;;;;;;;;;;;;12.20;60.90;96990.88;4226767;28;6453;-66
2023/12/14 10:21:37;;;;;;;;;;;;;;;12.19;61.25;96989.25;4233021;28;5748;-67
2023/12/14 10:23:40;;;;;;;;;;;;;;;12.19;61.06;96991.91;4227117;28;5749;-66
2023/12/14 10:25:43;;;;;;;;;;;;;;;12.18;61.01;96995.56;4233936;28;5658;-67
2023/12/14 10:27:48;;;;;;;;;;;;;;;12.18;60.86;96998.22;4233567;28;5638;-67
2023/12/14 10:29:51;;;;;;;;;;;;;;;12.21;61.01;97005.75;4234085;28;5738;-68
2023/12/14 10:31:55;;;;;;;;;;;;;;;12.21;60.76;97003.13;4232825;28;5662;-67
2023/12/14 10:33:59;;;;;;;;;;;;;;;12.20;60.73;97012.09;4228661;28;5805;-67
2023/12/14 10:36:03;;;;;;;;;;;;;;;12.20;60.82;97020.03;4227726;28;5635;-67
2023/12/14 10:38:06;;;;;;;;;;;;;;;12.20;60.44;97013.91;4233018;27;5650;-66
2023/12/14 10:40:11;;;;;;;;;;;;;;;12.21;60.58;97021.66;4232448;28;5800;-66
2023/12/14 10:42:18;;;;;;;;;;;;;;;12.21;60.50;97021.66;4232616;28;5673;-66
2023/12/14 10:44:27;;;;;;;;;;;;;;;12.23;60.37;97021.47;4232698;28;5733;-67
2023/12/14 10:46:51;;;;;;;;;;;;;;;12.26;60.48;97023.75;4232855;28;5749;-68
2023/12/14 10:48:55;;;;;;;;;;;;;;;12.27;60.37;97027.22;4232272;28;5714;-67
2023/12/14 10:51:01;;;;;;;;;;;;;;;12.26;60.34;97036.19;4232574;27;5628;-70
2023/12/14 10:53:05;;;;;;;;;;;;;;;12.23;60.21;97034.72;4231764;28;5626;-68
2023/12/14 10:55:12;;;;;;;;;;;;;;;12.20;60.31;97035.13;4231521;28;5730;-71
2023/12/14 10:57:15;;;;;;;;;;;;;;;12.18;60.44;97034.50;4232051;28;5654;-75
2023/12/14 10:59:18;;;;;;;;;;;;;;;12.18;60.29;97037.16;4232081;28;5770;-74
2023/12/14 11:01:24;;;;;;;;;;;;;;;12.17;60.02;97044.28;4235935;27;5761;-70
2023/12/14 11:03:27;;;;;;;;;;;;;;;12.17;60.01;97044.28;4233566;27;5650;-73
2023/12/14 11:05:30;;;;;;;;;;;;;;;12.16;60.09;97045.31;4219955;28;5782;-71
2023/12/14 11:07:54;;;;;;;;;;;;;;;12.16;59.99;97047.97;4228838;28;5092;-75
2023/12/14 11:09:56;;;;;;;;;;;;;;;12.16;59.93;97053.25;4235012;28;5654;-72
2023/12/14 11:11:59;;;;;;;;;;;;;;;12.17;60.30;97052.25;4236506;28;5888;-72
2023/12/14 11:14:04;;;;;;;;;;;;;;;12.16;59.94;97055.91;4236561;28;5638;-68
2023/12/14 11:16:07;;;;;;;;;;;;;;;12.17;59.99;97057.53;4236561;28;5852;-72
2023/12/14 11:18:25;;;;;;;;;;;;;;;12.20;59.91;97064.28;4236084;28;5791;-72
2023/12/14 11:20:28;;;;;;;;;;;;;;;12.20;59.94;97073.03;4236384;27;5705;-70
2023/12/14 11:22:31;;;;;;;;;;;;;;;12.19;60.05;97075.91;4236308;28;5665;-74
2023/12/14 11:24:35;;;;;;;;;;;;;;;12.19;59.84;97073.25;4236262;28;6471;-72
2023/12/14 11:26:38;;;;;;;;;;;;;;;12.17;59.97;97075.28;4234671;28;5812;-71
2023/12/14 11:28:43;;;;;;;;;;;;;;;12.18;59.92;97067.13;4236176;28;6473;-73
2023/12/14 11:30:47;;;;;;;;;;;;;;;12.20;60.19;97073.03;4231064;28;5763;-72
2023/12/14 11:32:58;;;;;;;;;;;;;;;12.22;59.98;97073.66;4242565;27;5661;-74
2023/12/14 11:35:01;;;;;;;;;;;;;;;12.26;60.26;97071.47;4235979;28;5092;-77
2023/12/14 11:37:06;;;;;;;;;;;;;;;12.26;60.36;97074.09;4236249;28;7711;-76
2023/12/14 11:39:11;;;;;;;;;;;;;;;12.28;60.21;97079.22;4235666;28;5751;-76
2023/12/14 11:41:16;;;;;;;;;;;;;;;12.29;60.44;97076.34;4219708;28;5679;-74
2023/12/14 11:43:20;;;;;;;;;;;;;;;12.32;60.11;97080.44;4214894;28;5901;-68
2023/12/14 11:45:24;;;;;;;;;;;;;;;12.31;60.16;97078.81;4219548;28;5738;-72
2023/12/14 11:47:28;;;;;;;;;;;;;;;12.28;60.24;97080.03;4213296;28;5734;-67
2023/12/14 11:49:32;;;;;;;;;;;;;;;12.29;60.27;97078.19;4223171;28;5732;-70
2023/12/14 11:51:35;;;;;;;;;;;;;;;12.28;60.10;97085.31;4233187;28;5729;-67
2023/12/14 11:53:39;;;;;;;;;;;;;;;12.30;60.43;97090.44;4219287;27;5743;-67
2023/12/14 11:55:44;;;;;;;;;;;;;;;12.32;60.18;97091.03;4234408;28;5720;-67
2023/12/14 11:57:49;;;;;;;;;;;;;;;12.34;60.27;97102.25;4225482;28;5636;-66
2023/12/14 11:59:53;;;;;;;;;;;;;;;12.33;60.05;97097.97;4237616;27;5635;-66
2023/12/14 12:01:57;;;;;;;;;;;;;;;12.35;60.21;97111.88;4233569;27;5726;-67
2023/12/14 12:04:09;;;;;;;;;;;;;;;12.31;59.96;97106.13;4245781;27;5684;-68
2023/12/14 12:06:22;;;;;;;;;;;;;;;12.32;60.19;97117.56;4230184;28;5104;-68
2023/12/14 12:08:25;;;;;;;;;;;;;;;12.30;59.92;97116.94;4223190;27;5940;-68
2023/12/14 12:10:29;;;;;;;;;;;;;;;12.31;60.11;97110.63;4235504;27;5164;-68
2023/12/14 12:12:34;;;;;;;;;;;;;;;12.32;60.20;97110.41;4229760;28;7836;-67
2023/12/14 12:14:42;;;;;;;;;;;;;;;12.33;60.25;97113.88;4235415;28;8428;-68
2023/12/14 12:16:46;;;;;;;;;;;;;;;12.33;60.17;97117.34;4234645;27;5878;-67
2023/12/14 12:18:50;;;;;;;;;;;;;;;12.32;60.12;97128.97;4236071;27;5821;-66
2023/12/14 12:20:54;;;;;;;;;;;;;;;12.31;59.83;97123.88;4235536;28;6342;-66
2023/12/14 12:22:57;;;;;;;;;;;;;;;12.29;59.98;97124.06;4229318;28;6508;-68
2023/12/14 12:25:00;;;;;;;;;;;;;;;12.27;59.79;97122.63;4226306;28;5773;-69
2023/12/14 12:27:16;;;;;;;;;;;;;;;12.26;60.13;97124.47;4235599;27;5642;-65
2023/12/14 12:29:18;;;;;;;;;;;;;;;12.28;60.13;97129.56;4235375;28;5778;-65
2023/12/14 12:31:23;;;;;;;;;;;;;;;12.28;59.96;97129.56;4235331;28;5654;-67
2023/12/14 12:33:26;;;;;;;;;;;;;;;12.29;59.94;97133.84;4235074;28;5091;-66
2023/12/14 12:35:32;;;;;;;;;;;;;;;12.28;59.72;97130.38;4227336;28;7648;-66
2023/12/14 12:37:34;;;;;;;;;;;;;;;12.28;59.87;97138.34;4230052;28;7706;-70
2023/12/14 12:39:38;;;;;;;;;;;;;;;12.29;60.00;97129.38;4230504;28;5646;-66
2023/12/14 12:41:41;;;;;;;;;;;;;;;12.30;59.88;97135.50;4234686;28;5741;-66
2023/12/14 12:43:43;;;;;;;;;;;;;;;12.29;59.66;97133.84;4235293;28;5641;-65
2023/12/14 12:45:47;;;;;;;;;;;;;;;12.27;59.74;97135.91;4234960;28;5095;-67
2023/12/14 12:47:51;;;;;;;;;;;;;;;12.25;59.79;97144.03;4234655;28;5651;-66
2023/12/14 12:49:54;;;;;;;;;;;;;;;12.24;59.86;97137.94;4235117;28;5766;-66
2023/12/14 12:51:57;;;;;;;;;;;;;;;12.28;60.04;97142.81;4234379;27;5658;-66
2023/12/14 12:54:01;;;;;;;;;;;;;;;12.26;60.03;97144.88;4235146;28;5647;-66
2023/12/14 12:56:15;;;;;;;;;;;;;;;12.24;60.13;97153.84;4234854;28;5840;-66
2023/12/14 12:58:18;;;;;;;;;;;;;;;12.24;60.20;97153.00;4234780;28;5645;-65
2023/12/14 13:00:22;;;;;;;;;;;;;;;12.24;60.17;97159.13;4234865;28;5753;-66
2023/12/14 13:02:25;;;;;;;;;;;;;;;12.27;60.02;97151.78;4234757;27;5662;-66
2023/12/14 13:04:31;;;;;;;;;;;;;;;12.26;60.16;97155.47;4232391;27;5111;-69
2023/12/14 13:06:33;;;;;;;;;;;;;;;12.26;60.11;97150.97;4223796;27;5662;-67
2023/12/14 13:08:36;;;;;;;;;;;;;;;12.29;59.95;97163.03;4227657;28;5084;-67
2023/12/14 13:10:39;;;;;;;;;;;;;;;12.29;60.19;97160.38;4234835;28;6368;-66
2023/12/14 13:12:42;;;;;;;;;;;;;;;12.29;60.19;97165.66;4235026;28;5650;-66
2023/12/14 13:14:46;;;;;;;;;;;;;;;12.29;59.82;97165.66;4234926;28;5650;-66
2023/12/14 13:16:49;;;;;;;;;;;;;;;12.27;59.89;97167.69;4234462;28;5880;-66
2023/12/14 13:18:52;;;;;;;;;;;;;;;12.27;60.09;97173.81;4234749;28;5826;-67
2023/12/14 13:20:57;;;;;;;;;;;;;;;12.27;60.11;97176.47;4234738;28;5646;-66
2023/12/14 13:23:00;;;;;;;;;;;;;;;12.29;59.83;97176.28;4234580;28;5650;-67
2023/12/14 13:25:03;;;;;;;;;;;;;;;12.29;59.68;97185.03;4234775;28;5657;-67
2023/12/14 13:27:06;;;;;;;;;;;;;;;12.30;59.84;97184.03;4233665;28;5654;-68
2023/12/14 13:29:10;;;;;;;;;;;;;;;12.27;59.77;97178.31;4234578;28;5642;-68
2023/12/14 13:31:13;;;;;;;;;;;;;;;12.26;59.41;97195.22;4234619;28;5661;-66
2023/12/14 13:33:16;;;;;;;;;;;;;;;12.24;59.65;97190.94;4234374;27;5785;-67
2023/12/14 13:35:19;;;;;;;;;;;;;;;12.26;59.34;97197.88;4234836;28;5884;-67
2023/12/14 13:37:23;;;;;;;;;;;;;;;12.24;59.34;97196.25;4234749;28;5854;-67
2023/12/14 13:39:26;;;;;;;;;;;;;;;12.24;59.12;97204.19;4234575;28;5766;-66
2023/12/14 13:41:33;;;;;;;;;;;;;;;12.24;59.09;97198.06;4234709;28;5752;-66
2023/12/14 13:43:51;;;;;;;;;;;;;;;12.24;59.25;97206.84;4234592;28;5749;-66
2023/12/14 13:45:57;;;;;;;;;;;;;;;12.26;59.07;97205.81;4234474;28;5650;-66
2023/12/14 13:48:19;;;;;;;;;;;;;;;12.27;59.09;97212.75;4234344;28;5816;-66
2023/12/14 13:50:21;;;;;;;;;;;;;;;12.24;58.88;97201.53;4234394;28;5825;-66
2023/12/14 13:52:26;;;;;;;;;;;;;;;12.28;58.99;97214.41;4234332;28;5682;-66
2023/12/14 13:54:33;;;;;;;;;;;;;;;12.29;58.73;97210.75;4226505;28;6347;-67
2023/12/14 13:56:36;;;;;;;;;;;;;;;12.30;58.71;97220.31;4234244;28;5642;-67
2023/12/14 13:58:40;;;;;;;;;;;;;;;12.30;58.64;97222.97;4234400;28;5642;-67
2023/12/14 14:00:44;;;;;;;;;;;;;;;12.31;58.91;97227.25;4233984;28;5650;-66
2023/12/14 14:02:47;;;;;;;;;;;;;;;12.31;58.65;97235.22;4234282;28;5694;-67
2023/12/14 14:04:52;;;;;;;;;;;;;;;12.30;58.69;97236.22;4234043;28;5650;-67
2023/12/14 14:06:56;;;;;;;;;;;;;;;12.29;58.50;97231.94;4234314;28;5759;-67
2023/12/14 14:09:01;;;;;;;;;;;;;;;12.28;58.39;97246.22;4231307;27;5794;-67
2023/12/14 14:11:04;;;;;;;;;;;;;;;12.27;58.63;97250.69;4231512;27;5807;-67
2023/12/14 14:13:11;;;;;;;;;;;;;;;12.26;58.64;97261.50;4236005;27;5110;-67
2023/12/14 14:15:14;;;;;;;;;;;;;;;12.24;58.31;97265.16;4233581;28;5638;-67
2023/12/14 14:17:17;;;;;;;;;;;;;;;12.27;58.33;97257.84;4231652;28;5752;-68
2023/12/14 14:19:20;;;;;;;;;;;;;;;12.27;58.28;97258.66;4233111;28;5903;-67
2023/12/14 14:21:23;;;;;;;;;;;;;;;12.24;58.34;97259.84;4233254;28;5722;-66
2023/12/14 14:23:26;;;;;;;;;;;;;;;12.24;58.42;97273.13;4234014;27;5658;-66
2023/12/14 14:25:31;;;;;;;;;;;;;;;12.24;58.13;97270.47;4234078;28;5751;-66
2023/12/14 14:27:33;;;;;;;;;;;;;;;12.26;58.21;97275.56;4225773;28;5639;-66
2023/12/14 14:29:36;;;;;;;;;;;;;;;12.29;58.36;97271.72;4233720;28;5661;-66
2023/12/14 14:31:39;;;;;;;;;;;;;;;12.28;58.15;97278.84;4233861;28;5642;-66
2023/12/14 14:33:43;;;;;;;;;;;;;;;12.28;58.08;97270.06;4232565;28;5800;-68
2023/12/14 14:35:47;;;;;;;;;;;;;;;12.29;57.79;97282.31;4233494;28;5760;-67
2023/12/14 14:37:51;;;;;;;;;;;;;;;12.29;57.76;97284.97;4233792;28;5777;-68
2023/12/14 14:39:54;;;;;;;;;;;;;;;12.29;57.81;97292.91;4236860;28;5673;-66
2023/12/14 14:41:58;;;;;;;;;;;;;;;12.27;57.84;97303.72;4236815;28;5716;-65
2023/12/14 14:44:00;;;;;;;;;;;;;;;12.24;57.67;97296.97;4237160;28;5643;-65
2023/12/14 14:46:04;;;;;;;;;;;;;;;12.23;57.52;97311.25;4237214;28;5722;-66
2023/12/14 14:48:08;;;;;;;;;;;;;;;12.20;57.54;97305.47;4236717;28;5651;-67
2023/12/14 14:50:12;;;;;;;;;;;;;;;12.17;57.70;97306.69;4237087;28;5658;-66
2023/12/14 14:52:15;;;;;;;;;;;;;;;12.18;57.31;97318.09;4235361;28;5075;-66
2023/12/14 14:54:18;;;;;;;;;;;;;;;12.17;57.55;97327.88;4236748;28;7718;-65
2023/12/14 14:56:21;;;;;;;;;;;;;;;12.17;57.21;97329.72;4236986;28;5793;-65
2023/12/14 14:58:26;;;;;;;;;;;;;;;12.15;57.29;97329.91;4237253;28;5657;-65
2023/12/14 15:00:29;;;;;;;;;;;;;;;12.13;57.45;97326.63;4236608;28;5655;-65
2023/12/14 15:02:32;;;;;;;;;;;;;;;12.13;57.11;97334.59;4236545;27;5661;-65
2023/12/14 15:04:35;;;;;;;;;;;;;;;12.13;57.20;97339.88;4236665;28;5678;-65
2023/12/14 15:06:38;;;;;;;;;;;;;;;12.12;57.39;97343.56;4236666;28;5646;-66
2023/12/14 15:08:41;;;;;;;;;;;;;;;12.10;57.00;97348.19;4234768;28;5762;-66
2023/12/14 15:10:44;;;;;;;;;;;;;;;12.09;57.19;97351.88;4236750;28;5658;-67
2023/12/14 15:12:47;;;;;;;;;;;;;;;12.09;57.06;97361.66;4236593;28;5646;-65
2023/12/14 15:14:51;;;;;;;;;;;;;;;12.06;57.19;97368.16;4236768;28;5777;-66
2023/12/14 15:16:54;;;;;;;;;;;;;;;12.06;57.23;97362.84;4233249;28;5897;-68
2023/12/14 15:18:57;;;;;;;;;;;;;;;12.07;57.36;97364.47;4224435;28;5667;-66
2023/12/14 15:21:00;;;;;;;;;;;;;;;12.08;57.48;97370.59;4232334;28;5828;-67
2023/12/14 15:23:05;;;;;;;;;;;;;;;12.10;57.29;97373.88;4236091;27;5717;-66
2023/12/14 15:25:09;;;;;;;;;;;;;;;12.09;57.61;97378.38;4230879;28;5767;-66
2023/12/14 15:27:11;;;;;;;;;;;;;;;12.09;57.71;97372.25;4235786;28;5733;-66
2023/12/14 15:29:15;;;;;;;;;;;;;;;12.10;57.51;97380.00;4236583;28;5642;-80
2023/12/14 15:31:20;;;;;;;;;;;;;;;12.10;57.49;97376.53;4236270;28;5756;-77
2023/12/14 15:33:22;;;;;;;;;;;;;;;12.10;57.81;97385.31;4235457;28;5091;-69
2023/12/14 15:35:26;;;;;;;;;;;;;;;12.11;57.78;97391.44;4235842;28;5661;-69
2023/12/14 15:37:29;;;;;;;;;;;;;;;12.11;57.54;97389.59;4235345;28;5802;-70
2023/12/14 15:39:31;;;;;;;;;;;;;;;12.09;57.62;97391.63;4234079;28;5741;-70
2023/12/14 15:41:35;;;;;;;;;;;;;;;12.11;57.51;97402.03;4233257;28;5762;-69
2023/12/14 15:43:38;;;;;;;;;;;;;;;12.11;57.60;97399.38;4234410;28;5666;-69
2023/12/14 15:45:43;;;;;;;;;;;;;;;12.11;57.71;97410.78;4235177;28;5642;-69
2023/12/14 15:47:47;;;;;;;;;;;;;;;12.11;57.75;97415.28;4234598;28;5832;-67
2023/12/14 15:49:50;;;;;;;;;;;;;;;12.10;57.85;97417.09;4234391;28;5088;-69
2023/12/14 15:51:53;;;;;;;;;;;;;;;12.09;58.00;97422.59;4235403;28;5930;-69
2023/12/14 15:53:59;;;;;;;;;;;;;;;12.08;58.07;97424.44;4235667;28;5721;-69
2023/12/14 15:56:02;;;;;;;;;;;;;;;12.06;58.09;97425.63;4235577;27;6472;-68
2023/12/14 15:58:04;;;;;;;;;;;;;;;12.06;57.84;97422.97;4235744;28;5654;-70
2023/12/14 16:00:09;;;;;;;;;;;;;;;12.06;58.02;97421.16;4232919;27;5666;-68
2023/12/14 16:02:12;;;;;;;;;;;;;;;12.06;57.92;97429.09;4234995;28;5650;-69
2023/12/14 16:04:16;;;;;;;;;;;;;;;12.06;58.08;97426.44;4234834;28;5666;-69
2023/12/14 16:06:19;;;;;;;;;;;;;;;12.05;58.02;97426.63;4227152;27;5898;-70
2023/12/14 16:08:23;;;;;;;;;;;;;;;12.03;58.24;97434.78;4227314;28;5909;-69
2023/12/14 16:10:26;;;;;;;;;;;;;;;12.06;58.15;97434.41;4231564;27;5642;-68
2023/12/14 16:12:29;;;;;;;;;;;;;;;12.07;58.32;97438.69;4236900;27;5761;-69
2023/12/14 16:14:32;;;;;;;;;;;;;;;12.08;58.16;97436.84;4225518;28;5658;-66
2023/12/14 16:16:35;;;;;;;;;;;;;;;12.10;58.06;97445.44;4234659;27;5848;-67
2023/12/14 16:18:37;;;;;;;;;;;;;;;12.09;58.25;97441.16;4232191;28;5785;-69
2023/12/14 16:20:42;;;;;;;;;;;;;;;12.08;58.17;97437.69;4230958;27;5651;-68
2023/12/14 16:22:44;;;;;;;;;;;;;;;12.07;58.33;97437.88;4227252;28;5663;-68
2023/12/14 16:24:47;;;;;;;;;;;;;;;12.05;58.46;97451.31;4226402;27;5693;-68
2023/12/14 16:26:52;;;;;;;;;;;;;;;12.05;58.16;97451.31;4231829;27;5918;-63
2023/12/14 16:29:01;;;;;;;;;;;;;;;12.06;58.33;97452.13;4235348;27;5638;-64
2023/12/14 16:31:04;;;;;;;;;;;;;;;12.05;58.17;97456.63;4226911;28;5667;-66
2023/12/14 16:33:07;;;;;;;;;;;;;;;12.04;58.38;97452.31;4230612;28;5652;-64
2023/12/14 16:35:10;;;;;;;;;;;;;;;12.04;58.42;97462.91;4228103;27;5642;-65
2023/12/14 16:37:15;;;;;;;;;;;;;;;12.03;58.43;97463.13;4232989;28;5641;-63
2023/12/14 16:39:18;;;;;;;;;;;;;;;12.03;58.08;97468.41;4232111;28;5765;-63
2023/12/14 16:41:21;;;;;;;;;;;;;;;12.03;58.36;97471.88;4229295;27;5840;-66
2023/12/14 16:43:24;;;;;;;;;;;;;;;12.03;58.33;97469.22;4222382;28;5757;-67
2023/12/14 16:45:27;;;;;;;;;;;;;;;12.02;58.13;97467.59;4237692;27;5753;-69
2023/12/14 16:47:30;;;;;;;;;;;;;;;11.99;58.25;97467.94;4226952;27;5784;-77
2023/12/14 16:49:35;;;;;;;;;;;;;;;12.01;57.88;97476.56;4235535;28;5989;-79
2023/12/14 16:51:37;;;;;;;;;;;;;;;11.99;58.08;97475.88;4235402;28;5629;-78
2023/12/14 16:53:42;;;;;;;;;;;;;;;12.01;57.94;97486.34;4230351;27;5819;-77
2023/12/14 16:55:46;;;;;;;;;;;;;;;12.02;57.76;97493.28;4229680;28;5796;-86
2023/12/14 16:57:48;;;;;;;;;;;;;;;12.01;57.81;97495.09;4234134;28;5785;-72
2023/12/14 16:59:53;;;;;;;;;;;;;;;11.97;57.21;97501.75;4226417;28;5650;-60
2023/12/14 17:01:56;;;;;;;;;;;;;;;11.91;57.56;97503.34;4224016;28;5658;-61
2023/12/14 17:03:59;;;;;;;;;;;;;;;11.90;57.15;97514.13;4228673;27;5626;-61
2023/12/14 17:06:02;;;;;;;;;;;;;;;11.85;57.22;97509.34;4231762;28;6466;-61
2023/12/14 17:08:05;;;;;;;;;;;;;;;11.83;57.15;97510.53;4229619;28;6321;-60
2023/12/14 17:10:10;;;;;;;;;;;;;;;11.83;57.15;97516.66;4232749;28;5796;-60
2023/12/14 17:12:12;;;;;;;;;;;;;;;11.85;57.18;97519.94;4234669;27;5742;-61
2023/12/14 17:14:17;;;;;;;;;;;;;;;11.85;56.86;97522.59;4235402;27;5642;-61
2023/12/14 17:16:20;;;;;;;;;;;;;;;11.85;57.25;97525.25;4228381;27;5808;-61
2023/12/14 17:18:23;;;;;;;;;;;;;;;11.87;56.92;97531.19;4233909;28;5929;-60
2023/12/14 17:20:26;;;;;;;;;;;;;;;11.88;56.82;97534.66;4227263;28;5646;-61
2023/12/14 17:22:32;;;;;;;;;;;;;;;11.87;57.06;97533.81;4229882;28;5649;-61